Terminal Aerodrome Forecast
Issued by NWS

Home | Current Version | Previous Version | Text Only | Print | Product List | Glossary Off
Versions: 1 2 3 4 5 6 7 8 9 10 11 12 13 14 15 16 17 18 19 20 21 22 23

929
FTUS43 KIWX 081759 CCA
TAFSBN
TAF COR
KSBN 081759Z 0818/0918 29008KT P6SM OVC015
     FM090400 29010KT P6SM VCSH OVC015
      TEMPO 0904/0908 2SM -SHSN OVC008
     FM090800 30012KT 2SM -SHSN OVC012
     FM091400 32013KT P6SM OVC015=

USA.gov is the U.S. government's official web portal to all federal, state and local government web resources and services.